createdAt,value
2018-08-08T00:00:25.655Z,5.00
2018-08-08T00:02:54.385Z,5.07
2018-08-08T00:05:23.077Z,4.73
2018-08-08T00:07:51.784Z,4.97
2018-08-08T00:10:20.520Z,4.87
2018-08-08T00:12:49.196Z,5.23
2018-08-08T00:15:17.891Z,5.53
2018-08-08T00:17:47.139Z,4.97
2018-08-08T00:20:15.932Z,4.77
2018-08-08T00:22:44.648Z,5.13
2018-08-08T00:25:14.724Z,5.33
2018-08-08T00:27:43.795Z,5.00
2018-08-08T00:30:13.763Z,5.47
2018-08-08T00:32:42.635Z,5.43
2018-08-08T00:35:11.287Z,5.90
2018-08-08T00:37:39.986Z,5.03
2018-08-08T00:40:11.313Z,5.30
2018-08-08T00:42:40.103Z,5.47
2018-08-08T00:45:11.214Z,5.10
2018-08-08T00:47:40.409Z,5.33
2018-08-08T00:50:10.567Z,5.77
2018-08-08T00:52:39.951Z,5.97
2018-08-08T00:55:07.831Z,6.10
2018-08-08T00:57:36.629Z,5.97
2018-08-08T01:00:06.729Z,5.70
2018-08-08T01:02:36.007Z,6.20
2018-08-08T01:05:06.193Z,5.67
2018-08-08T01:07:34.859Z,5.53
2018-08-08T01:10:03.649Z,5.60
2018-08-08T01:12:32.279Z,6.40
2018-08-08T01:15:00.950Z,5.70
2018-08-08T01:17:29.589Z,6.17
2018-08-08T01:19:58.288Z,5.63
2018-08-08T01:22:26.953Z,5.70
2018-08-08T01:24:55.661Z,6.53
2018-08-08T01:27:24.403Z,5.80
2018-08-08T01:29:53.068Z,5.43
2018-08-08T01:32:21.741Z,6.17
2018-08-08T01:34:50.463Z,5.60
2018-08-08T01:37:19.158Z,5.80
2018-08-08T01:39:47.846Z,5.77
2018-08-08T01:42:16.519Z,5.87
2018-08-08T01:44:45.202Z,5.37
2018-08-08T01:47:13.905Z,5.90
2018-08-08T01:49:42.596Z,5.67
2018-08-08T01:52:11.248Z,5.90
2018-08-08T01:54:39.915Z,5.67
2018-08-08T01:57:08.576Z,6.07
2018-08-08T01:59:37.287Z,6.10
2018-08-08T02:02:05.939Z,5.93
2018-08-08T02:04:34.644Z,5.77
2018-08-08T02:07:03.312Z,5.53
2018-08-08T02:09:31.982Z,5.67
2018-08-08T02:12:00.684Z,6.20
2018-08-08T02:14:29.413Z,5.93
2018-08-08T02:16:58.057Z,5.90
2018-08-08T02:19:26.715Z,5.90
2018-08-08T02:21:55.358Z,6.07
2018-08-08T02:24:24.042Z,5.50
2018-08-08T02:26:52.674Z,5.97
2018-08-08T02:29:21.400Z,6.00
2018-08-08T02:31:50.118Z,6.77
2018-08-08T02:34:18.787Z,6.53
2018-08-08T02:36:47.487Z,5.93
2018-08-08T02:39:16.128Z,5.80
2018-08-08T02:41:44.816Z,5.70
2018-08-08T02:44:13.476Z,6.07
2018-08-08T02:46:42.131Z,6.17
2018-08-08T02:49:10.784Z,6.60
2018-08-08T02:51:39.442Z,6.03
2018-08-08T02:54:08.082Z,6.10
2018-08-08T02:56:36.748Z,6.30
2018-08-08T02:59:05.582Z,6.63
2018-08-08T03:01:34.306Z,5.40
2018-08-08T03:04:02.939Z,6.23
2018-08-08T03:06:31.618Z,6.27
2018-08-08T03:09:00.251Z,5.87
2018-08-08T03:11:28.932Z,5.93
2018-08-08T03:13:57.593Z,5.90
2018-08-08T03:16:26.259Z,5.63
2018-08-08T03:18:54.913Z,6.23
2018-08-08T03:21:23.591Z,6.40
2018-08-08T03:23:52.258Z,5.60
2018-08-08T03:26:21.037Z,6.10
2018-08-08T03:28:49.630Z,5.90
2018-08-08T03:31:18.284Z,5.90
2018-08-08T03:33:46.973Z,6.53
2018-08-08T03:36:15.721Z,5.93
2018-08-08T03:38:44.360Z,6.23
2018-08-08T03:41:13.019Z,6.20
2018-08-08T03:43:41.702Z,6.23
2018-08-08T03:46:10.384Z,5.77
2018-08-08T03:48:39.051Z,6.60
2018-08-08T03:51:07.856Z,6.03
2018-08-08T03:53:36.512Z,5.90
2018-08-08T03:56:05.230Z,5.80
2018-08-08T03:58:33.927Z,6.30
2018-08-08T04:01:02.625Z,5.97
2018-08-08T04:03:31.529Z,5.63
2018-08-08T04:06:00.211Z,5.60
2018-08-08T04:08:28.883Z,5.43
2018-08-08T04:10:57.578Z,5.90
2018-08-08T04:13:26.275Z,6.10
2018-08-08T04:15:55.044Z,6.10
2018-08-08T04:18:23.684Z,6.03
2018-08-08T04:20:52.387Z,6.17
2018-08-08T04:23:21.045Z,6.50
2018-08-08T04:25:49.772Z,6.00
2018-08-08T04:28:18.427Z,5.83
2018-08-08T04:30:47.101Z,6.27
2018-08-08T04:33:15.784Z,6.80
2018-08-08T04:35:44.452Z,6.60
2018-08-08T04:38:13.127Z,6.30
2018-08-08T04:40:41.796Z,5.97
2018-08-08T04:43:10.468Z,5.80
2018-08-08T04:45:39.125Z,5.97
2018-08-08T04:48:07.879Z,6.63
2018-08-08T04:50:36.556Z,7.10
2018-08-08T04:53:05.224Z,6.40
2018-08-08T04:55:33.943Z,6.80
2018-08-08T04:58:02.664Z,6.27
2018-08-08T05:00:31.334Z,6.67
2018-08-08T05:03:00.024Z,6.67
2018-08-08T05:05:28.662Z,6.80
2018-08-08T05:07:57.384Z,6.50
2018-08-08T05:10:26.110Z,6.90
2018-08-08T05:12:54.848Z,6.83
2018-08-08T05:15:23.506Z,7.20
2018-08-08T05:17:52.177Z,6.50
2018-08-08T05:20:20.914Z,6.43
2018-08-08T05:22:50.047Z,6.60
2018-08-08T05:25:18.702Z,6.47
2018-08-08T05:27:47.726Z,6.67
2018-08-08T05:30:18.569Z,5.90
2018-08-08T05:32:47.271Z,6.27
2018-08-08T05:35:17.296Z,6.90
2018-08-08T05:37:45.986Z,6.70
2018-08-08T05:40:17.134Z,7.00
2018-08-08T05:42:46.304Z,7.37
2018-08-08T05:45:15.521Z,6.93
2018-08-08T05:47:46.052Z,6.77
2018-08-08T05:50:14.720Z,6.60
2018-08-08T05:52:43.784Z,7.80
2018-08-08T05:55:13.871Z,7.63
2018-08-08T05:57:42.580Z,7.50
2018-08-08T06:00:27.689Z,8.07
2018-08-08T06:02:56.416Z,8.20
2018-08-08T06:05:25.129Z,8.00
2018-08-08T06:07:54.199Z,8.10
2018-08-08T06:10:22.847Z,7.63
2018-08-08T06:12:51.580Z,7.43
2018-08-08T06:15:20.304Z,8.27
2018-08-08T06:17:49.012Z,7.87
2018-08-08T06:20:19.986Z,8.43
2018-08-08T06:22:49.190Z,8.00
2018-08-08T06:25:17.979Z,8.40
2018-08-08T06:27:47.018Z,8.77
2018-08-08T06:30:19.281Z,8.40
2018-08-08T06:32:48.524Z,7.80
2018-08-08T06:35:19.151Z,8.57
2018-08-08T06:37:47.922Z,9.20
2018-08-08T06:40:16.625Z,8.73
2018-08-08T06:42:46.063Z,8.93
2018-08-08T06:45:16.996Z,9.17
2018-08-08T06:47:45.691Z,8.63
2018-08-08T06:50:15.008Z,8.47
2018-08-08T06:52:43.710Z,8.70
2018-08-08T06:55:13.865Z,9.00
2018-08-08T06:57:46.322Z,8.80
2018-08-08T07:00:18.523Z,9.10
2018-08-08T07:02:47.335Z,8.93
2018-08-08T07:05:17.102Z,8.90
2018-08-08T07:07:46.134Z,8.80
2018-08-08T07:10:14.855Z,8.57
2018-08-08T07:12:43.559Z,9.13
2018-08-08T07:15:14.013Z,8.87
2018-08-08T07:17:42.725Z,8.63
2018-08-08T07:20:12.773Z,9.83
2018-08-08T07:22:41.517Z,8.97
2018-08-08T07:25:12.925Z,9.20
2018-08-08T07:27:41.649Z,8.60
2018-08-08T07:30:12.740Z,9.30
2018-08-08T07:32:41.393Z,9.00
2018-08-08T07:35:11.032Z,8.97
2018-08-08T07:37:40.153Z,9.00
2018-08-08T07:40:10.771Z,8.97
2018-08-08T07:42:40.284Z,9.33
2018-08-08T07:45:16.302Z,8.97
2018-08-08T07:47:44.970Z,9.43
2018-08-08T07:50:14.395Z,9.63
2018-08-08T07:52:43.687Z,8.63
2018-08-08T07:55:13.320Z,9.20
2018-08-08T07:57:42.153Z,9.03
2018-08-08T08:00:21.338Z,9.90
2018-08-08T08:02:50.444Z,9.60
2018-08-08T08:05:19.517Z,9.40
2018-08-08T08:07:49.133Z,9.50
2018-08-08T08:13:11.075Z,9.53
2018-08-08T08:15:39.772Z,8.77
2018-08-08T08:18:08.442Z,10.13
2018-08-08T08:20:37.129Z,9.40
2018-08-08T08:23:05.898Z,9.37
2018-08-08T08:25:34.621Z,9.30
2018-08-08T08:28:03.280Z,8.83
2018-08-08T08:30:31.981Z,9.23
2018-08-08T08:33:00.940Z,9.70
2018-08-08T08:35:29.628Z,10.10
2018-08-08T08:37:58.321Z,9.00
2018-08-08T08:40:27.056Z,9.10
2018-08-08T08:42:55.732Z,8.80
2018-08-08T08:45:24.442Z,9.10
2018-08-08T08:47:53.134Z,8.90
2018-08-08T08:50:21.943Z,9.20
2018-08-08T08:52:50.582Z,9.17
2018-08-08T08:55:19.269Z,9.60
2018-08-08T08:57:47.936Z,9.70
2018-08-08T09:00:16.638Z,8.60
2018-08-08T09:02:45.308Z,9.20
2018-08-08T09:05:14.006Z,8.97
2018-08-08T09:07:42.702Z,11.20
2018-08-08T09:10:12.160Z,8.10
2018-08-08T09:12:41.663Z,10.10
2018-08-08T09:15:12.351Z,8.07
2018-08-08T09:17:41.124Z,8.20
2018-08-08T09:20:09.897Z,7.90
2018-08-08T09:22:38.677Z,8.03
2018-08-08T09:25:08.000Z,8.03
2018-08-08T09:27:36.926Z,8.10
2018-08-08T09:30:08.524Z,7.87
2018-08-08T09:32:37.815Z,7.10
2018-08-08T09:35:06.672Z,7.40
2018-08-08T09:37:35.345Z,7.67
2018-08-08T09:40:04.221Z,7.50
2018-08-08T09:42:32.876Z,7.60
2018-08-08T09:45:01.636Z,7.07
2018-08-08T09:47:30.319Z,7.80
2018-08-08T09:49:59.138Z,7.50
2018-08-08T09:52:27.799Z,8.03
2018-08-08T09:54:56.578Z,8.17
2018-08-08T09:57:25.228Z,7.30
2018-08-08T09:59:53.892Z,8.43
2018-08-08T10:02:27.904Z,7.37
2018-08-08T10:04:56.560Z,7.20
2018-08-08T10:07:25.256Z,7.67
2018-08-08T10:09:53.921Z,7.17
2018-08-08T10:12:22.674Z,7.30
2018-08-08T10:14:51.331Z,7.40
2018-08-08T10:17:20.009Z,6.63
2018-08-08T10:19:48.651Z,6.93
2018-08-08T10:22:17.316Z,7.30
2018-08-08T10:24:52.489Z,7.40
2018-08-08T10:27:27.907Z,6.87
2018-08-08T10:29:56.535Z,7.17
2018-08-08T10:32:25.279Z,7.57
2018-08-08T10:34:53.934Z,7.40
2018-08-08T10:37:22.624Z,6.87
2018-08-08T10:39:51.255Z,7.33
2018-08-08T10:42:19.955Z,6.87
2018-08-08T10:44:48.596Z,6.70
2018-08-08T10:47:17.248Z,6.83
2018-08-08T10:49:45.930Z,7.20
2018-08-08T10:52:14.606Z,6.80
2018-08-08T10:54:43.247Z,6.60
2018-08-08T10:57:11.906Z,6.70
2018-08-08T10:59:40.593Z,6.93
2018-08-08T11:02:09.301Z,7.17
2018-08-08T11:04:37.963Z,7.40
2018-08-08T11:07:06.731Z,7.43
2018-08-08T11:09:35.360Z,7.27
2018-08-08T11:12:04.071Z,6.60
2018-08-08T11:14:32.740Z,7.00
2018-08-08T11:17:01.436Z,7.10
2018-08-08T11:19:30.083Z,6.67
2018-08-08T11:21:58.736Z,6.73
2018-08-08T11:24:27.365Z,6.77
2018-08-08T11:26:56.043Z,6.87
2018-08-08T11:29:24.709Z,6.40
2018-08-08T11:31:53.443Z,7.50
2018-08-08T11:34:22.070Z,6.90
2018-08-08T11:36:50.776Z,6.87
2018-08-08T11:39:19.448Z,6.93
2018-08-08T11:41:48.113Z,6.70
2018-08-08T11:44:16.739Z,6.47
2018-08-08T11:46:45.419Z,6.20
2018-08-08T11:49:14.084Z,6.43
2018-08-08T11:51:42.769Z,6.90
2018-08-08T11:54:11.403Z,6.50
2018-08-08T11:56:40.897Z,6.97
2018-08-08T11:59:09.580Z,7.40
2018-08-08T12:01:38.262Z,6.57
2018-08-08T12:04:06.984Z,6.50
2018-08-08T12:06:35.636Z,6.20
2018-08-08T12:09:06.808Z,6.40
2018-08-08T12:11:35.473Z,6.30
2018-08-08T12:14:04.298Z,7.13
2018-08-08T12:16:36.433Z,6.40
2018-08-08T12:19:05.170Z,5.77
2018-08-08T12:21:33.856Z,5.90
2018-08-08T12:24:02.500Z,4.90
2018-08-08T12:26:31.178Z,4.47
2018-08-08T12:28:59.952Z,4.87
2018-08-08T12:31:28.652Z,4.80
2018-08-08T12:33:57.384Z,8.90
2018-08-08T12:36:26.070Z,4.50
2018-08-08T12:38:54.769Z,4.53
2018-08-08T12:41:23.423Z,5.00
2018-08-08T12:43:52.153Z,5.97
2018-08-08T12:46:20.867Z,5.30
2018-08-08T12:48:49.532Z,5.43
2018-08-08T12:51:18.193Z,5.97
2018-08-08T12:53:46.872Z,6.03
2018-08-08T12:56:15.546Z,6.87
2018-08-08T12:58:44.205Z,6.43
2018-08-08T13:01:12.894Z,6.57
2018-08-08T13:03:41.633Z,6.50
2018-08-08T13:06:10.319Z,6.00
2018-08-08T13:08:39.108Z,6.70
2018-08-08T13:11:07.815Z,6.50
2018-08-08T13:13:36.483Z,6.80
2018-08-08T13:16:05.192Z,7.07
2018-08-08T13:18:33.872Z,7.27
2018-08-08T13:21:02.571Z,7.53
2018-08-08T13:23:31.225Z,7.83
2018-08-08T13:25:59.901Z,7.37
2018-08-08T13:28:28.585Z,8.00
2018-08-08T13:30:57.268Z,7.40
2018-08-08T13:33:25.933Z,6.93
2018-08-08T13:35:54.618Z,6.93
2018-08-08T13:38:23.300Z,7.10
2018-08-08T13:40:51.932Z,7.30
2018-08-08T13:43:20.585Z,7.00
2018-08-08T13:45:49.335Z,6.73
2018-08-08T13:48:17.922Z,6.73
2018-08-08T13:50:46.572Z,7.20
2018-08-08T13:53:15.248Z,6.40
2018-08-08T13:55:43.872Z,7.00
2018-08-08T13:58:12.514Z,5.80
2018-08-08T14:00:41.172Z,6.43
2018-08-08T14:03:09.851Z,5.80
2018-08-08T14:05:38.508Z,5.30
2018-08-08T14:08:07.248Z,5.87
2018-08-08T14:10:35.893Z,5.03
2018-08-08T14:13:04.574Z,4.67
2018-08-08T14:15:33.238Z,4.50
2018-08-08T14:18:01.928Z,4.47
2018-08-08T14:20:30.602Z,4.60
2018-08-08T14:22:59.280Z,4.50
2018-08-08T14:25:27.916Z,4.40
2018-08-08T14:27:56.605Z,4.30
2018-08-08T14:30:25.256Z,5.03
2018-08-08T14:32:53.897Z,5.10
2018-08-08T14:35:22.570Z,4.47
2018-08-08T14:37:51.253Z,4.90
2018-08-08T14:40:19.922Z,4.23
2018-08-08T14:42:48.621Z,4.43
2018-08-08T14:45:17.299Z,4.47
2018-08-08T14:47:45.951Z,4.67
2018-08-08T14:50:14.629Z,4.10
2018-08-08T14:52:43.285Z,4.30
2018-08-08T14:55:11.975Z,4.27
2018-08-08T14:57:40.629Z,4.67
2018-08-08T15:00:11.287Z,4.60
2018-08-08T15:02:40.162Z,4.70
2018-08-08T15:05:10.055Z,5.30
2018-08-08T15:07:38.722Z,4.63
2018-08-08T15:10:07.518Z,4.30
2018-08-08T15:12:36.352Z,4.10
2018-08-08T15:15:06.560Z,4.53
2018-08-08T15:17:35.249Z,3.90
2018-08-08T15:20:03.976Z,4.67
2018-08-08T15:22:32.638Z,4.60
2018-08-08T15:25:01.324Z,4.97
2018-08-08T15:27:29.976Z,4.90
2018-08-08T15:29:58.652Z,4.90
2018-08-08T15:32:27.320Z,5.30
2018-08-08T15:34:56.019Z,5.23
2018-08-08T15:37:25.113Z,6.00
2018-08-08T15:39:53.410Z,6.10
2018-08-08T15:42:22.053Z,6.03
2018-08-08T15:44:50.747Z,5.03
2018-08-08T15:47:19.405Z,6.07
2018-08-08T15:49:48.096Z,6.90
2018-08-08T15:52:16.774Z,6.77
2018-08-08T15:54:45.467Z,7.27
2018-08-08T15:57:14.176Z,6.40
2018-08-08T15:59:42.869Z,6.10
2018-08-08T16:02:11.531Z,6.10
2018-08-08T16:04:40.213Z,6.20
2018-08-08T16:07:08.868Z,5.90
2018-08-08T16:09:37.532Z,5.73
2018-08-08T16:12:06.247Z,6.07
2018-08-08T16:14:34.943Z,5.87
2018-08-08T16:17:03.650Z,5.57
2018-08-08T16:19:32.349Z,5.60
2018-08-08T16:22:01.014Z,6.17
2018-08-08T16:24:29.678Z,5.87
2018-08-08T16:26:58.325Z,5.67
2018-08-08T16:29:27.015Z,5.80
2018-08-08T16:31:55.677Z,6.23
2018-08-08T16:34:24.367Z,5.73
2018-08-08T16:36:53.040Z,6.07
2018-08-08T16:39:21.774Z,6.73
2018-08-08T16:41:50.440Z,5.80
2018-08-08T16:44:19.128Z,6.10
2018-08-08T16:46:47.792Z,7.50
2018-08-08T16:49:16.435Z,6.40
2018-08-08T16:51:45.094Z,7.00
2018-08-08T16:54:13.747Z,6.60
2018-08-08T16:56:42.425Z,6.80
2018-08-08T16:59:11.081Z,6.93
2018-08-08T17:01:39.756Z,6.67
2018-08-08T17:04:08.441Z,6.83
2018-08-08T17:06:37.138Z,7.53
2018-08-08T17:09:09.103Z,7.50
2018-08-08T17:11:37.745Z,7.40
2018-08-08T17:14:06.511Z,7.23
2018-08-08T17:16:35.638Z,7.83
2018-08-08T17:19:04.326Z,7.13
2018-08-08T17:21:33.010Z,7.37
2018-08-08T17:24:01.663Z,7.50
2018-08-08T17:26:30.493Z,7.80
2018-08-08T17:28:59.126Z,8.07
2018-08-08T17:31:27.851Z,7.60
2018-08-08T17:33:56.472Z,7.70
2018-08-08T17:36:25.143Z,7.60
2018-08-08T17:38:53.804Z,7.80
2018-08-08T17:41:22.556Z,7.40
2018-08-08T17:43:51.587Z,8.37
2018-08-08T17:46:19.957Z,8.40
2018-08-08T17:48:48.602Z,8.57
2018-08-08T17:51:17.307Z,7.90
2018-08-08T17:53:45.975Z,8.50
2018-08-08T17:56:14.636Z,8.50
2018-08-08T17:58:43.301Z,8.67
2018-08-08T18:01:11.953Z,9.10
2018-08-08T18:03:40.581Z,9.03
2018-08-08T18:06:09.246Z,8.40
2018-08-08T18:08:37.864Z,8.77
2018-08-08T18:11:06.565Z,8.73
2018-08-08T18:13:35.207Z,9.07
2018-08-08T18:16:03.928Z,9.40
2018-08-08T18:18:32.576Z,9.90
2018-08-08T18:21:01.317Z,9.43
2018-08-08T18:23:29.904Z,9.67
2018-08-08T18:25:58.580Z,9.30
2018-08-08T18:28:27.209Z,9.50
2018-08-08T18:30:55.855Z,8.77
2018-08-08T18:33:24.496Z,10.40
2018-08-08T18:35:53.156Z,10.07
2018-08-08T18:38:21.795Z,10.70
2018-08-08T18:40:50.458Z,9.80
2018-08-08T18:43:19.102Z,9.83
2018-08-08T18:45:47.752Z,10.40
2018-08-08T18:48:16.390Z,10.40
2018-08-08T18:50:45.071Z,11.10
2018-08-08T18:53:13.710Z,9.47
2018-08-08T18:55:42.352Z,10.17
2018-08-08T18:58:10.992Z,9.30
2018-08-08T19:00:39.614Z,10.37
2018-08-08T19:03:08.276Z,10.10
2018-08-08T19:05:36.932Z,10.77
2018-08-08T19:08:05.702Z,11.37
2018-08-08T19:10:34.364Z,11.80
2018-08-08T19:13:03.021Z,11.50
2018-08-08T19:15:31.676Z,12.00
2018-08-08T19:18:00.351Z,11.10
2018-08-08T19:20:29.009Z,11.63
2018-08-08T19:22:57.711Z,10.70
2018-08-08T19:25:26.383Z,11.07
2018-08-08T19:27:55.031Z,12.10
2018-08-08T19:30:23.680Z,11.47
2018-08-08T19:32:52.360Z,12.50
2018-08-08T19:35:21.011Z,11.63
2018-08-08T19:37:49.699Z,12.10
2018-08-08T19:40:18.326Z,12.47
2018-08-08T19:42:46.976Z,11.53
2018-08-08T19:45:15.626Z,12.00
2018-08-08T19:47:44.301Z,11.80
2018-08-08T19:50:13.142Z,12.93
2018-08-08T19:52:42.061Z,11.97
2018-08-08T19:55:10.964Z,12.73
2018-08-08T19:57:39.829Z,11.27
2018-08-08T20:00:08.751Z,13.13
2018-08-08T20:02:37.655Z,12.50
2018-08-08T20:05:06.483Z,12.53
2018-08-08T20:07:35.363Z,12.00
2018-08-08T20:10:04.326Z,11.53
2018-08-08T20:12:33.238Z,12.50
2018-08-08T20:15:02.146Z,14.00
2018-08-08T20:17:31.012Z,12.43
2018-08-08T20:19:59.912Z,12.43
2018-08-08T20:22:28.792Z,12.83
2018-08-08T20:24:57.503Z,12.00
2018-08-08T20:27:26.173Z,12.27
2018-08-08T20:29:54.817Z,12.53
2018-08-08T20:32:23.490Z,12.70
2018-08-08T20:34:52.211Z,12.67
2018-08-08T20:37:20.886Z,13.07
2018-08-08T20:39:49.527Z,12.00
2018-08-08T20:42:19.229Z,12.93
2018-08-08T20:44:49.165Z,12.60
2018-08-08T20:47:19.131Z,12.53
2018-08-08T20:49:48.688Z,12.33
2018-08-08T20:52:17.967Z,12.53
2018-08-08T20:54:47.667Z,12.03
2018-08-08T20:57:23.837Z,12.47
2018-08-08T21:02:47.686Z,11.10
2018-08-08T21:05:16.851Z,11.07
2018-08-08T21:07:46.569Z,11.93
2018-08-08T21:10:17.506Z,12.07
2018-08-08T21:12:46.248Z,12.67
2018-08-08T21:15:15.329Z,11.70
2018-08-08T21:17:44.967Z,11.60
2018-08-08T21:20:14.639Z,11.47
2018-08-08T21:22:45.179Z,11.90
2018-08-08T21:25:22.537Z,11.17
2018-08-08T21:27:52.791Z,11.80
2018-08-08T21:30:22.608Z,12.10
2018-08-08T21:32:52.008Z,11.97
2018-08-08T21:35:21.508Z,11.90
2018-08-08T21:37:51.761Z,12.00
2018-08-08T21:40:22.206Z,11.93
2018-08-08T21:42:50.863Z,11.87
2018-08-08T21:45:19.522Z,12.80
2018-08-08T21:47:48.180Z,12.37
2018-08-08T21:50:16.833Z,12.10
2018-08-08T21:52:45.492Z,11.73
2018-08-08T21:55:25.519Z,11.60
2018-08-08T21:59:05.360Z,10.93
2018-08-08T22:01:45.242Z,10.90
2018-08-08T22:04:25.096Z,10.10
2018-08-08T22:07:04.970Z,11.03
2018-08-08T22:09:44.929Z,10.50
2018-08-08T22:12:24.787Z,10.97
2018-08-08T22:16:06.276Z,9.67
2018-08-08T22:18:46.268Z,10.20
2018-08-08T22:21:14.914Z,10.70
2018-08-08T22:23:43.601Z,10.07
2018-08-08T22:26:12.314Z,9.33
2018-08-08T22:28:40.966Z,10.70
2018-08-08T22:31:09.627Z,9.90
2018-08-08T22:33:38.278Z,9.83
2018-08-08T22:36:06.953Z,8.83
2018-08-08T22:38:35.626Z,9.37
2018-08-08T22:41:04.304Z,8.80
2018-08-08T22:43:32.935Z,9.27
2018-08-08T22:46:01.600Z,9.80
2018-08-08T22:48:30.249Z,9.50
2018-08-08T22:50:58.941Z,9.73
2018-08-08T22:53:27.565Z,9.80
2018-08-08T22:55:56.224Z,10.77
2018-08-08T22:58:24.874Z,9.87
2018-08-08T23:00:53.572Z,10.33
2018-08-08T23:03:22.212Z,10.17
2018-08-08T23:05:50.901Z,9.63
2018-08-08T23:08:19.551Z,9.90
2018-08-08T23:10:48.208Z,9.60
2018-08-08T23:13:16.885Z,10.17
2018-08-08T23:15:45.571Z,10.43
2018-08-08T23:18:14.231Z,9.83
2018-08-08T23:20:42.877Z,9.87
2018-08-08T23:23:11.507Z,9.20
2018-08-08T23:25:40.194Z,9.00
2018-08-08T23:28:08.828Z,8.80
2018-08-08T23:30:37.499Z,10.10
2018-08-08T23:33:06.251Z,9.37
2018-08-08T23:35:34.902Z,9.40
2018-08-08T23:38:03.578Z,9.17
2018-08-08T23:40:32.243Z,9.60
2018-08-08T23:43:00.887Z,8.97
2018-08-08T23:45:29.560Z,9.03
2018-08-08T23:47:58.216Z,8.60
2018-08-08T23:50:26.882Z,8.97
2018-08-08T23:52:55.529Z,8.80
2018-08-08T23:55:24.190Z,8.70
2018-08-08T23:57:52.864Z,9.20
